Time;durP1;ratioP1;P1;durP2;ratioP2;P2;SDS_P1;SDS_P2;PMS_P1;PMS_P2;Temp;Humidity;BMP_temperature;BMP_pressure;BME280_temperature;BME280_humidity;BME280_pressure;Samples;Min_cycle;Max_cycle;Signal;HPM_P1;HPM_P2
2021/05/08 00:00:53;;;;;;;25.30;18.90;;;6.60;99.90;;;;;;5021087;28;20718;-78
2021/05/08 00:03:19;;;;;;;28.13;20.00;;;6.60;99.90;;;;;;5004900;28;20288;-77
2021/05/08 00:05:47;;;;;;;27.07;20.43;;;6.60;99.90;;;;;;5004616;28;20204;-78
2021/05/08 00:08:14;;;;;;;25.97;19.80;;;6.60;99.90;;;;;;5005601;28;20827;-78
2021/05/08 00:10:40;;;;;;;25.23;20.40;;;6.60;99.90;;;;;;5016546;28;20234;-78
2021/05/08 00:13:08;;;;;;;29.43;20.77;;;6.60;99.90;;;;;;5024733;28;20238;-77
2021/05/08 00:15:34;;;;;;;28.50;21.13;;;6.70;99.90;;;;;;5025183;28;20202;-76
2021/05/08 00:18:00;;;;;;;27.07;21.00;;;6.70;99.90;;;;;;5015157;28;20211;-78
2021/05/08 00:20:27;;;;;;;26.47;21.40;;;6.70;99.90;;;;;;5004699;28;20233;-77
2021/05/08 00:22:53;;;;;;;26.83;21.13;;;6.70;99.90;;;;;;5004487;28;20875;-76
2021/05/08 00:25:19;;;;;;;24.80;20.13;;;6.70;99.90;;;;;;5004295;28;20298;-78
2021/05/08 00:27:45;;;;;;;28.20;22.60;;;6.70;99.90;;;;;;5003814;28;20246;-78
2021/05/08 00:30:14;;;;;;;28.50;22.57;;;6.70;99.90;;;;;;5004999;28;20616;-77
2021/05/08 00:32:40;;;;;;;31.27;22.10;;;6.70;99.90;;;;;;5004958;28;20208;-78
2021/05/08 00:35:07;;;;;;;29.57;22.87;;;6.70;99.90;;;;;;5004672;28;20241;-78
2021/05/08 00:37:34;;;;;;;28.67;21.50;;;6.70;99.90;;;;;;5004740;28;20277;-78
2021/05/08 00:40:00;;;;;;;26.63;20.77;;;6.70;99.90;;;;;;5005269;28;20207;-76
2021/05/08 00:42:27;;;;;;;27.20;21.57;;;6.70;99.90;;;;;;5004760;28;20198;-78
2021/05/08 00:44:53;;;;;;;30.83;21.90;;;6.70;99.90;;;;;;5005645;28;20207;-79
2021/05/08 00:47:20;;;;;;;26.63;21.47;;;6.70;99.90;;;;;;5004589;28;20608;-78
2021/05/08 00:49:47;;;;;;;32.70;22.80;;;6.70;99.90;;;;;;5005207;28;20492;-78
2021/05/08 00:52:13;;;;;;;26.67;21.63;;;6.70;99.90;;;;;;5004840;28;20195;-78
2021/05/08 00:54:40;;;;;;;28.80;22.30;;;6.70;99.90;;;;;;5003918;28;20396;-78
2021/05/08 00:57:06;;;;;;;28.40;22.13;;;6.70;99.90;;;;;;5004669;28;20274;-78
2021/05/08 00:59:33;;;;;;;31.27;22.40;;;6.70;99.90;;;;;;5004692;28;20211;-78
2021/05/08 01:01:59;;;;;;;30.33;22.73;;;6.70;99.90;;;;;;5004212;28;20234;-77
2021/05/08 01:04:26;;;;;;;29.53;21.90;;;6.80;99.90;;;;;;5004536;28;20207;-79
2021/05/08 01:06:54;;;;;;;30.33;22.87;;;6.80;99.90;;;;;;5004373;28;20211;-78
2021/05/08 01:09:22;;;;;;;30.43;23.20;;;6.80;99.90;;;;;;5003526;28;20235;-77
2021/05/08 01:11:49;;;;;;;29.10;21.40;;;6.80;99.90;;;;;;5004669;28;20239;-78
2021/05/08 01:14:16;;;;;;;28.20;22.03;;;6.90;99.90;;;;;;5004342;28;20203;-79
2021/05/08 01:16:42;;;;;;;28.00;21.97;;;6.90;99.90;;;;;;5003614;28;20210;-79
2021/05/08 01:19:09;;;;;;;29.67;21.77;;;6.90;99.90;;;;;;5015864;28;20218;-79
2021/05/08 01:21:36;;;;;;;32.07;21.93;;;6.90;99.90;;;;;;5023713;28;20226;-77
2021/05/08 01:24:04;;;;;;;25.53;21.13;;;6.90;99.90;;;;;;5022904;28;20190;-78
2021/05/08 01:26:30;;;;;;;28.87;21.97;;;6.90;99.90;;;;;;5006797;28;20774;-78
2021/05/08 01:28:56;;;;;;;27.77;21.30;;;6.90;99.90;;;;;;5004796;28;20881;-78
2021/05/08 01:31:23;;;;;;;28.13;21.83;;;6.90;99.90;;;;;;5003551;28;20238;-78
2021/05/08 01:33:50;;;;;;;26.97;20.60;;;6.90;99.90;;;;;;5004028;28;20199;-76
2021/05/08 01:36:16;;;;;;;28.00;22.63;;;6.90;99.90;;;;;;5003856;28;20564;-78
2021/05/08 01:38:43;;;;;;;24.67;20.70;;;6.90;99.90;;;;;;5004224;28;21029;-78
2021/05/08 01:41:11;;;;;;;27.60;21.93;;;6.80;99.90;;;;;;5003604;28;20235;-77
2021/05/08 01:43:38;;;;;;;28.30;21.77;;;6.80;99.90;;;;;;5002929;28;21002;-79
2021/05/08 01:46:05;;;;;;;30.10;21.13;;;6.80;99.90;;;;;;5002987;28;20206;-78
2021/05/08 01:48:32;;;;;;;26.60;20.23;;;6.80;99.90;;;;;;5003442;28;20203;-80
2021/05/08 01:50:58;;;;;;;29.63;21.40;;;6.80;99.90;;;;;;5002659;28;20208;-78
2021/05/08 01:53:25;;;;;;;26.97;20.50;;;6.70;99.90;;;;;;5003157;28;20215;-78
2021/05/08 01:55:53;;;;;;;25.53;21.33;;;6.70;99.90;;;;;;5003194;28;20261;-77
2021/05/08 01:58:19;;;;;;;26.60;20.53;;;6.70;99.90;;;;;;5002970;28;20284;-79
2021/05/08 02:00:47;;;;;;;23.70;19.40;;;6.60;99.90;;;;;;5002870;28;20334;-78
2021/05/08 02:03:15;;;;;;;26.70;20.97;;;6.60;99.90;;;;;;5003484;28;20856;-79
2021/05/08 02:05:45;;;;;;;24.53;19.53;;;6.60;99.90;;;;;;5002786;28;20859;-79
2021/05/08 02:08:12;;;;;;;25.03;20.13;;;6.60;99.90;;;;;;5002626;28;20196;-79
2021/05/08 02:10:40;;;;;;;22.67;17.97;;;6.50;99.90;;;;;;5002927;28;20229;-79
2021/05/08 02:13:08;;;;;;;24.80;20.07;;;6.50;99.90;;;;;;5002265;28;20308;-79
2021/05/08 02:15:35;;;;;;;24.87;20.27;;;6.50;99.90;;;;;;5003140;28;20253;-78
2021/05/08 02:18:02;;;;;;;26.80;20.83;;;6.40;99.90;;;;;;5003081;28;20264;-80
2021/05/08 02:20:30;;;;;;;24.83;19.87;;;6.40;99.90;;;;;;5002209;28;20561;-78
2021/05/08 02:22:59;;;;;;;23.83;18.97;;;6.40;99.90;;;;;;5002399;28;20285;-78
2021/05/08 02:25:26;;;;;;;25.47;19.90;;;6.40;99.90;;;;;;5002571;28;20203;-79
2021/05/08 02:27:53;;;;;;;23.07;19.10;;;6.40;99.90;;;;;;5001465;28;20261;-79
2021/05/08 02:30:23;;;;;;;25.50;20.53;;;6.40;99.90;;;;;;5003293;28;20200;-79
2021/05/08 02:32:49;;;;;;;25.43;18.97;;;6.30;99.90;;;;;;5002161;28;20203;-79
2021/05/08 02:35:18;;;;;;;24.90;20.23;;;6.30;99.90;;;;;;5003069;28;20206;-79
2021/05/08 02:37:45;;;;;;;24.67;19.73;;;6.30;99.90;;;;;;5002420;28;20222;-80
2021/05/08 02:40:13;;;;;;;25.97;20.43;;;6.20;99.90;;;;;;5002149;28;20265;-79
2021/05/08 02:42:40;;;;;;;23.63;20.40;;;6.20;99.90;;;;;;5003227;28;20280;-79
2021/05/08 02:45:08;;;;;;;28.20;22.03;;;6.20;99.90;;;;;;5002870;28;20208;-79
2021/05/08 02:47:37;;;;;;;26.93;19.70;;;6.20;99.90;;;;;;5002518;28;20207;-79
2021/05/08 02:50:04;;;;;;;23.80;19.17;;;6.20;99.90;;;;;;5002777;28;20258;-79
2021/05/08 02:52:31;;;;;;;31.47;21.40;;;6.20;99.90;;;;;;5003083;28;20195;-79
2021/05/08 02:54:57;;;;;;;27.27;20.90;;;6.10;99.90;;;;;;5001836;28;20207;-79
2021/05/08 02:57:23;;;;;;;25.73;19.43;;;6.10;99.90;;;;;;5002531;28;20217;-79
2021/05/08 02:59:50;;;;;;;24.53;17.47;;;6.10;99.90;;;;;;5002149;28;20211;-79
2021/05/08 03:02:17;;;;;;;23.80;18.77;;;6.10;99.90;;;;;;5002321;28;20616;-79
2021/05/08 03:04:44;;;;;;;25.13;19.03;;;6.10;99.90;;;;;;5002102;28;20211;-79
2021/05/08 03:07:10;;;;;;;24.90;19.10;;;6.10;99.90;;;;;;5002422;28;20552;-78
2021/05/08 03:09:36;;;;;;;22.17;17.97;;;6.10;99.90;;;;;;5001418;28;20240;-79
2021/05/08 03:12:04;;;;;;;23.83;18.40;;;6.00;99.90;;;;;;5002408;28;20711;-79
2021/05/08 03:14:30;;;;;;;22.57;17.93;;;6.00;99.90;;;;;;5002503;28;20217;-79
2021/05/08 03:16:57;;;;;;;26.53;18.17;;;6.00;99.90;;;;;;5001908;28;20203;-79
2021/05/08 03:19:24;;;;;;;22.73;18.27;;;6.00;99.90;;;;;;5002447;28;20203;-80
2021/05/08 03:21:51;;;;;;;22.80;18.57;;;6.00;99.90;;;;;;5001861;28;20272;-79
2021/05/08 03:24:17;;;;;;;22.67;17.33;;;6.00;99.90;;;;;;5002798;28;20207;-79
2021/05/08 03:26:44;;;;;;;24.27;18.50;;;6.00;99.90;;;;;;5002335;28;20745;-79
2021/05/08 03:29:10;;;;;;;24.73;18.30;;;6.00;99.90;;;;;;5001714;28;20661;-78
2021/05/08 03:31:36;;;;;;;26.17;17.87;;;6.00;99.90;;;;;;5002301;28;20230;-79
2021/05/08 03:34:03;;;;;;;24.50;18.63;;;6.00;99.90;;;;;;5002172;28;20211;-79
2021/05/08 03:36:29;;;;;;;23.70;17.80;;;6.00;99.90;;;;;;5002152;28;20350;-80
2021/05/08 03:38:57;;;;;;;22.27;17.53;;;5.90;99.90;;;;;;5003827;28;20191;-80
2021/05/08 03:41:23;;;;;;;21.70;16.03;;;5.90;99.90;;;;;;5005529;28;20317;-79
2021/05/08 03:43:50;;;;;;;23.63;17.80;;;5.90;99.90;;;;;;5005122;28;20207;-78
2021/05/08 03:46:16;;;;;;;24.07;17.40;;;5.90;99.90;;;;;;5005959;28;20626;-79
2021/05/08 03:48:43;;;;;;;23.80;16.93;;;5.90;99.90;;;;;;5006061;28;20207;-80
2021/05/08 03:51:09;;;;;;;22.60;17.60;;;5.80;99.90;;;;;;5004708;28;20262;-79
2021/05/08 03:53:35;;;;;;;26.10;18.03;;;5.80;99.90;;;;;;5005567;28;20222;-79
2021/05/08 03:56:04;;;;;;;24.07;18.73;;;5.80;99.90;;;;;;5005863;28;20203;-78
2021/05/08 03:58:32;;;;;;;24.40;18.27;;;5.80;99.90;;;;;;5005493;28;20325;-79
2021/05/08 04:00:59;;;;;;;24.17;18.17;;;5.80;99.90;;;;;;5005314;28;20226;-79
2021/05/08 04:03:26;;;;;;;25.93;19.03;;;5.70;99.90;;;;;;5005657;28;20773;-78
2021/05/08 04:05:52;;;;;;;24.57;17.57;;;5.70;99.90;;;;;;5004868;28;20537;-80
2021/05/08 04:08:19;;;;;;;21.60;17.23;;;5.70;99.90;;;;;;5005541;28;20230;-80
2021/05/08 04:10:47;;;;;;;27.33;18.33;;;5.70;99.90;;;;;;5005002;28;20223;-79
2021/05/08 04:13:15;;;;;;;21.30;16.87;;;5.70;99.90;;;;;;5004500;28;20242;-79
2021/05/08 04:15:41;;;;;;;22.00;17.57;;;5.70;99.90;;;;;;5005187;28;20211;-80
2021/05/08 04:18:08;;;;;;;23.60;17.23;;;5.70;99.90;;;;;;5004853;28;20284;-79
2021/05/08 04:20:34;;;;;;;26.60;18.67;;;5.70;99.90;;;;;;5005688;28;20290;-81
2021/05/08 04:23:01;;;;;;;21.13;17.43;;;5.80;99.90;;;;;;5021869;28;20210;-78
2021/05/08 04:25:27;;;;;;;20.37;16.17;;;5.80;99.90;;;;;;5024189;28;20367;-80
2021/05/08 04:27:54;;;;;;;21.87;17.67;;;5.80;99.90;;;;;;5018756;28;20225;-78
2021/05/08 04:30:22;;;;;;;24.97;16.77;;;5.90;99.90;;;;;;5004693;28;20214;-78
2021/05/08 04:32:49;;;;;;;21.03;16.23;;;5.90;99.90;;;;;;5003768;28;20222;-80
2021/05/08 04:35:16;;;;;;;20.83;15.93;;;6.00;99.90;;;;;;5004727;28;20501;-80
2021/05/08 04:37:42;;;;;;;22.93;16.33;;;6.00;99.90;;;;;;5005091;28;20208;-80
2021/05/08 04:40:09;;;;;;;21.17;15.57;;;6.10;99.90;;;;;;5003138;28;20417;-80
2021/05/08 04:42:36;;;;;;;20.30;15.53;;;6.10;99.90;;;;;;5005183;28;20304;-79
2021/05/08 04:45:03;;;;;;;21.50;15.83;;;6.10;99.90;;;;;;5004255;28;20210;-79
2021/05/08 04:47:30;;;;;;;19.87;15.87;;;6.20;99.90;;;;;;5003956;28;20226;-79
2021/05/08 04:49:59;;;;;;;19.10;15.13;;;6.20;99.90;;;;;;5004262;28;20214;-79
2021/05/08 04:52:26;;;;;;;17.47;15.30;;;6.30;99.90;;;;;;5004338;28;20608;-79
2021/05/08 04:54:52;;;;;;;17.33;15.20;;;6.30;99.90;;;;;;5003716;28;20199;-77
2021/05/08 04:57:19;;;;;;;18.27;14.50;;;6.30;99.90;;;;;;5003942;28;20554;-79
2021/05/08 04:59:45;;;;;;;17.90;14.93;;;6.40;99.90;;;;;;5004262;28;20545;-79
2021/05/08 05:02:11;;;;;;;18.63;13.53;;;6.40;99.90;;;;;;5002918;28;20563;-80
2021/05/08 05:04:39;;;;;;;17.60;13.73;;;6.60;99.90;;;;;;5004060;28;20222;-79
2021/05/08 05:07:05;;;;;;;16.43;13.10;;;6.60;99.90;;;;;;5004148;28;20249;-79
2021/05/08 05:09:33;;;;;;;17.67;12.97;;;6.70;99.90;;;;;;5004016;28;20225;-80
2021/05/08 05:12:00;;;;;;;15.67;13.50;;;6.80;99.90;;;;;;5003660;28;20249;-79
2021/05/08 05:14:27;;;;;;;18.50;13.20;;;6.90;99.90;;;;;;5003666;28;20215;-79
2021/05/08 05:16:53;;;;;;;16.60;12.57;;;6.90;99.90;;;;;;5004118;28;20203;-80
2021/05/08 05:19:19;;;;;;;17.83;12.37;;;7.10;99.90;;;;;;5004559;28;20535;-79
2021/05/08 05:21:47;;;;;;;16.13;11.87;;;7.10;99.90;;;;;;5003502;28;20230;-80
2021/05/08 05:24:13;;;;;;;15.23;12.10;;;7.20;99.90;;;;;;5004537;28;20200;-80
2021/05/08 05:26:40;;;;;;;13.70;11.53;;;7.30;99.90;;;;;;5003238;28;20931;-79
2021/05/08 05:29:09;;;;;;;14.63;12.10;;;7.40;99.90;;;;;;5003296;28;20588;-80
2021/05/08 05:31:35;;;;;;;13.70;10.73;;;7.50;99.90;;;;;;5004229;28;20207;-80
2021/05/08 05:34:02;;;;;;;12.73;10.73;;;7.60;99.90;;;;;;5004568;28;20211;-80
2021/05/08 05:36:28;;;;;;;16.43;11.37;;;7.70;99.90;;;;;;5003188;28;20211;-79
2021/05/08 05:38:55;;;;;;;14.33;11.00;;;7.70;99.90;;;;;;5004578;28;20253;-79
2021/05/08 05:41:22;;;;;;;15.50;10.97;;;7.70;99.90;;;;;;5004872;28;20301;-81
2021/05/08 05:43:48;;;;;;;13.43;10.80;;;7.80;99.90;;;;;;5004264;28;20349;-78
2021/05/08 05:46:15;;;;;;;16.10;10.87;;;7.90;99.90;;;;;;5004338;28;20608;-80
2021/05/08 05:48:41;;;;;;;13.73;11.23;;;8.00;99.90;;;;;;5004119;28;20560;-79
2021/05/08 05:51:08;;;;;;;12.03;10.23;;;8.10;99.90;;;;;;5003518;28;20207;-79
2021/05/08 05:53:34;;;;;;;12.63;10.03;;;8.20;99.90;;;;;;5004070;28;20205;-80
2021/05/08 05:56:01;;;;;;;12.80;10.37;;;8.20;99.90;;;;;;5004243;28;20215;-81
2021/05/08 05:58:28;;;;;;;11.90;10.60;;;8.30;99.90;;;;;;5003300;28;20203;-79
2021/05/08 06:00:54;;;;;;;11.03;9.43;;;8.30;99.90;;;;;;5002762;28;20234;-80
2021/05/08 06:03:20;;;;;;;10.63;9.10;;;8.40;99.90;;;;;;5003001;28;20207;-78
2021/05/08 06:05:47;;;;;;;10.67;9.00;;;8.40;99.90;;;;;;5003440;28;20210;-79
2021/05/08 06:08:13;;;;;;;10.90;9.13;;;8.40;99.90;;;;;;5003591;28;20219;-79
2021/05/08 06:10:39;;;;;;;13.87;9.40;;;8.40;99.90;;;;;;5002676;28;20230;-79
2021/05/08 06:13:07;;;;;;;11.83;9.73;;;8.50;99.90;;;;;;5003379;28;20237;-81
2021/05/08 06:15:33;;;;;;;10.43;9.33;;;8.50;99.90;;;;;;5004101;28;20213;-81
2021/05/08 06:18:00;;;;;;;13.47;10.13;;;8.60;99.90;;;;;;5002760;28;20211;-80
2021/05/08 06:20:26;;;;;;;12.57;9.87;;;8.70;99.90;;;;;;5003262;28;20210;-80
2021/05/08 06:22:53;;;;;;;13.13;9.63;;;8.70;99.90;;;;;;5003179;28;20195;-80
2021/05/08 06:25:20;;;;;;;12.83;9.30;;;8.80;99.90;;;;;;5003097;28;20226;-79
2021/05/08 06:27:47;;;;;;;14.07;9.37;;;8.90;99.90;;;;;;5003257;28;20204;-79
2021/05/08 06:30:15;;;;;;;11.97;9.33;;;8.90;99.90;;;;;;5003486;28;20207;-80
2021/05/08 06:32:42;;;;;;;12.17;9.37;;;9.00;99.90;;;;;;5002784;28;20203;-81
2021/05/08 06:35:08;;;;;;;12.00;9.53;;;9.00;99.90;;;;;;5003183;28;20199;-80
2021/05/08 06:37:35;;;;;;;11.83;9.20;;;9.10;99.90;;;;;;5002856;28;20834;-79
2021/05/08 06:40:01;;;;;;;11.33;8.90;;;9.00;99.90;;;;;;5002819;28;20203;-81
2021/05/08 06:42:28;;;;;;;11.90;10.33;;;9.10;99.90;;;;;;5003478;28;20234;-79
2021/05/08 06:44:54;;;;;;;13.33;10.03;;;9.20;99.90;;;;;;5003586;28;20210;-82
2021/05/08 06:47:21;;;;;;;11.67;9.30;;;9.20;99.90;;;;;;5003994;28;20207;-79
2021/05/08 06:49:48;;;;;;;11.93;9.57;;;9.30;99.90;;;;;;5002898;28;20206;-79
2021/05/08 06:52:14;;;;;;;13.20;9.43;;;9.50;99.90;;;;;;5003453;28;20215;-81
2021/05/08 06:54:40;;;;;;;11.37;9.50;;;9.50;99.90;;;;;;5002909;28;20214;-80
2021/05/08 06:57:07;;;;;;;14.93;9.40;;;9.60;99.90;;;;;;5003532;28;20211;-80
2021/05/08 06:59:33;;;;;;;12.77;9.80;;;9.70;99.90;;;;;;5003695;28;20199;-78
2021/05/08 07:02:00;;;;;;;10.93;8.83;;;9.80;99.90;;;;;;5011164;28;20590;-81
2021/05/08 07:04:27;;;;;;;11.63;8.93;;;9.90;99.90;;;;;;5023218;28;20234;-83
2021/05/08 07:06:53;;;;;;;10.00;7.80;;;10.00;99.90;;;;;;5023521;28;20206;-82
2021/05/08 07:09:20;;;;;;;11.07;8.60;;;10.10;99.90;;;;;;5006828;28;20238;-80
2021/05/08 07:11:46;;;;;;;15.03;8.77;;;10.10;99.90;;;;;;5002019;28;20529;-80
2021/05/08 07:14:12;;;;;;;12.67;8.43;;;10.20;99.90;;;;;;5006148;28;20203;-77
2021/05/08 07:16:39;;;;;;;11.87;9.27;;;10.30;99.90;;;;;;5007022;28;20210;-79
2021/05/08 07:19:05;;;;;;;11.33;8.40;;;10.50;99.90;;;;;;4990384;28;20892;-78
2021/05/08 07:21:32;;;;;;;10.57;7.93;;;10.50;99.90;;;;;;5006085;28;20873;-80
2021/05/08 07:23:58;;;;;;;11.33;8.27;;;10.60;99.90;;;;;;5007011;28;20195;-81
2021/05/08 07:26:25;;;;;;;9.20;7.57;;;10.60;99.90;;;;;;5006884;28;20678;-77
2021/05/08 07:28:51;;;;;;;8.63;7.10;;;10.70;99.90;;;;;;5007008;28;20207;-78
2021/05/08 07:31:17;;;;;;;9.40;7.63;;;10.70;99.90;;;;;;5006333;28;20230;-79
2021/05/08 07:33:48;;;;;;;10.90;7.77;;;10.70;99.90;;;;;;5006014;28;20218;-79
2021/05/08 07:36:22;;;;;;;9.47;7.33;;;10.70;99.90;;;;;;5006593;28;20191;-79
2021/05/08 07:38:49;;;;;;;9.43;7.53;;;10.60;99.90;;;;;;5007820;28;20192;-79
2021/05/08 07:41:15;;;;;;;9.67;7.60;;;10.60;99.90;;;;;;5018228;28;20238;-82
2021/05/08 07:43:41;;;;;;;9.73;8.00;;;10.70;99.90;;;;;;5010276;28;20226;-81
2021/05/08 07:46:08;;;;;;;15.10;8.07;;;10.60;99.90;;;;;;5006787;28;20258;-84
2021/05/08 07:48:34;;;;;;;13.03;8.40;;;10.50;99.90;;;;;;5006778;28;20319;-80
2021/05/08 07:51:00;;;;;;;8.90;7.50;;;10.50;99.90;;;;;;5007564;28;20203;-78
2021/05/08 07:53:27;;;;;;;9.87;7.90;;;10.60;99.90;;;;;;5026283;28;20516;-79
2021/05/08 07:55:54;;;;;;;9.53;8.13;;;10.60;99.90;;;;;;5017864;28;20346;-79
2021/05/08 07:58:22;;;;;;;9.30;7.57;;;10.50;99.90;;;;;;5006689;28;20233;-79
2021/05/08 08:00:48;;;;;;;10.70;7.83;;;10.60;99.90;;;;;;5005514;28;20211;-78
2021/05/08 08:03:14;;;;;;;9.63;7.30;;;10.60;99.90;;;;;;5006204;28;20266;-80
2021/05/08 08:05:41;;;;;;;9.40;7.83;;;10.60;99.90;;;;;;5006574;28;20269;-80
2021/05/08 08:08:07;;;;;;;9.57;8.30;;;10.60;99.90;;;;;;5006220;28;20206;-78
2021/05/08 08:10:33;;;;;;;8.83;7.60;;;10.60;99.90;;;;;;5005577;28;20215;-77
2021/05/08 08:13:00;;;;;;;9.80;7.63;;;10.70;99.90;;;;;;5006011;28;20381;-79
2021/05/08 08:15:27;;;;;;;8.70;7.00;;;10.70;99.90;;;;;;5004345;28;20658;-79
2021/05/08 08:17:53;;;;;;;10.00;7.60;;;10.80;99.90;;;;;;5004989;28;20214;-78
2021/05/08 08:20:20;;;;;;;11.10;7.70;;;10.80;99.90;;;;;;5005734;28;20262;-78
2021/05/08 08:22:46;;;;;;;9.73;6.87;;;10.80;99.90;;;;;;5006135;28;20218;-78
2021/05/08 08:25:14;;;;;;;10.73;7.20;;;10.90;99.90;;;;;;5005155;28;20266;-77
2021/05/08 08:27:41;;;;;;;11.00;7.67;;;10.90;99.90;;;;;;5005046;28;20203;-79
2021/05/08 08:30:11;;;;;;;9.53;7.63;;;10.90;99.90;;;;;;5005534;28;20262;-78
2021/05/08 08:32:39;;;;;;;9.77;7.67;;;11.00;99.90;;;;;;4988058;28;20583;-79
2021/05/08 08:35:06;;;;;;;10.40;7.57;;;11.00;99.90;;;;;;5005448;28;20207;-79
2021/05/08 08:37:33;;;;;;;8.77;7.07;;;11.00;99.90;;;;;;5005094;28;20208;-78
2021/05/08 08:39:59;;;;;;;11.63;8.27;;;10.90;99.90;;;;;;5003617;28;20214;-79
2021/05/08 08:42:26;;;;;;;11.57;7.53;;;11.00;99.90;;;;;;5004132;28;20343;-81
2021/05/08 08:44:52;;;;;;;10.23;7.17;;;10.90;99.90;;;;;;5005195;28;20200;-79
2021/05/08 08:47:29;;;;;;;10.53;7.57;;;11.00;99.90;;;;;;5004696;28;20217;-81
2021/05/08 08:49:59;;;;;;;12.37;8.13;;;11.10;99.90;;;;;;5005511;28;20918;-80
2021/05/08 08:52:26;;;;;;;9.50;8.17;;;11.20;99.90;;;;;;5004307;28;20220;-80
2021/05/08 08:54:53;;;;;;;14.43;8.23;;;11.20;99.90;;;;;;5004863;28;20222;-79
2021/05/08 08:57:25;;;;;;;11.07;8.47;;;11.30;99.90;;;;;;5005286;28;20218;-78
2021/05/08 08:59:53;;;;;;;9.20;7.87;;;11.30;99.90;;;;;;5005176;28;20200;-78
2021/05/08 09:02:21;;;;;;;13.27;7.70;;;11.30;99.90;;;;;;5005353;28;20326;-80
2021/05/08 09:04:48;;;;;;;10.53;7.77;;;11.40;99.90;;;;;;5005221;28;20723;-78
2021/05/08 09:07:16;;;;;;;9.90;8.10;;;11.40;99.90;;;;;;5004597;28;20214;-78
2021/05/08 09:09:44;;;;;;;9.83;7.20;;;11.40;99.90;;;;;;5004575;28;20230;-78
2021/05/08 09:12:13;;;;;;;8.73;7.80;;;11.40;99.90;;;;;;5004392;28;20733;-79
2021/05/08 09:14:39;;;;;;;9.93;8.47;;;11.50;99.90;;;;;;5004274;28;20207;-78
2021/05/08 09:17:08;;;;;;;12.63;8.00;;;11.50;99.90;;;;;;5011976;28;20263;-77
2021/05/08 09:19:37;;;;;;;9.13;7.70;;;11.60;99.90;;;;;;5044021;28;20198;-79
2021/05/08 09:22:28;;;;;;;10.40;8.37;;;11.50;99.90;;;;;;5042802;28;20221;-79
2021/05/08 09:24:55;;;;;;;9.03;7.80;;;11.40;99.90;;;;;;5042861;28;20206;-77
2021/05/08 09:27:42;;;;;;;9.43;7.97;;;11.50;99.90;;;;;;5004232;28;20274;-77
2021/05/08 09:30:14;;;;;;;9.00;7.07;;;11.60;99.90;;;;;;5004282;28;20603;-77
2021/05/08 09:32:42;;;;;;;10.77;7.13;;;11.60;99.90;;;;;;5003601;28;20206;-78
2021/05/08 09:35:13;;;;;;;8.27;6.80;;;11.70;99.90;;;;;;5003083;28;20550;-77
2021/05/08 09:37:39;;;;;;;8.93;7.10;;;11.70;99.90;;;;;;5002547;28;20290;-76
2021/05/08 09:40:16;;;;;;;10.00;7.00;;;11.70;99.90;;;;;;5003687;28;20211;-77
2021/05/08 09:42:43;;;;;;;9.93;7.20;;;11.80;99.90;;;;;;5003311;28;20660;-77
2021/05/08 09:45:11;;;;;;;10.37;7.97;;;11.80;99.90;;;;;;5004101;28;20215;-78
2021/05/08 09:47:37;;;;;;;8.17;6.50;;;11.80;99.90;;;;;;5004495;28;20207;-78
2021/05/08 09:50:04;;;;;;;8.33;6.80;;;11.80;99.90;;;;;;5022952;28;20385;-77
2021/05/08 09:52:44;;;;;;;9.93;7.87;;;11.80;99.90;;;;;;5023056;28;20214;-79
2021/05/08 09:55:12;;;;;;;9.13;7.37;;;11.80;99.90;;;;;;5022790;28;20597;-79
2021/05/08 09:57:38;;;;;;;8.83;7.20;;;11.80;99.90;;;;;;5012280;28;20215;-78
2021/05/08 10:00:26;;;;;;;10.33;8.30;;;11.80;99.90;;;;;;5003527;28;20199;-78
2021/05/08 10:03:01;;;;;;;12.30;8.00;;;11.80;99.90;;;;;;5002760;28;20268;-78
2021/05/08 10:05:27;;;;;;;10.23;7.77;;;11.70;99.90;;;;;;5003428;28;20256;-77
2021/05/08 10:07:54;;;;;;;11.30;8.20;;;11.60;99.90;;;;;;5003413;28;20604;-79
2021/05/08 10:10:21;;;;;;;9.40;7.73;;;11.60;99.90;;;;;;5002975;28;20273;-78
2021/05/08 10:12:48;;;;;;;10.30;8.40;;;11.50;99.90;;;;;;5002681;28;20242;-78
2021/05/08 10:15:15;;;;;;;9.83;7.90;;;11.40;99.90;;;;;;5003763;28;20859;-76
2021/05/08 10:17:44;;;;;;;11.17;7.57;;;11.30;99.90;;;;;;5003471;28;21014;-77
2021/05/08 10:20:13;;;;;;;12.83;7.70;;;11.40;99.90;;;;;;5003262;28;20261;-77
2021/05/08 10:22:43;;;;;;;11.30;8.60;;;11.30;99.90;;;;;;5003604;28;20262;-77
2021/05/08 10:25:12;;;;;;;10.43;8.27;;;11.30;99.90;;;;;;5002515;28;20503;-78
2021/05/08 10:27:39;;;;;;;9.90;7.63;;;11.30;99.90;;;;;;5003924;28;20269;-78
2021/05/08 10:30:10;;;;;;;9.63;7.87;;;11.30;99.90;;;;;;5002914;28;20207;-78
2021/05/08 10:32:39;;;;;;;12.97;9.03;;;11.30;99.90;;;;;;5002455;28;20195;-78
2021/05/08 10:35:06;;;;;;;9.87;8.00;;;11.30;99.90;;;;;;5003126;28;20238;-77
2021/05/08 10:37:33;;;;;;;12.63;8.43;;;11.30;99.90;;;;;;5003323;28;20226;-80
2021/05/08 10:40:13;;;;;;;11.60;8.13;;;11.30;99.90;;;;;;5002525;28;20690;-81
2021/05/08 10:42:42;;;;;;;10.30;7.83;;;11.20;99.90;;;;;;5002384;28;20226;-80
2021/05/08 10:45:33;;;;;;;11.27;8.07;;;11.20;99.90;;;;;;5002634;28;20203;-77
2021/05/08 10:48:10;;;;;;;10.27;8.20;;;11.20;99.90;;;;;;5002938;28;20318;-80
2021/05/08 10:50:41;;;;;;;13.07;7.83;;;11.20;99.90;;;;;;5003187;28;20312;-78
2021/05/08 10:53:08;;;;;;;9.60;7.47;;;11.10;99.90;;;;;;5002896;28;20203;-78
2021/05/08 10:55:49;;;;;;;10.57;7.40;;;11.10;99.90;;;;;;5003405;28;20238;-78
2021/05/08 10:58:30;;;;;;;13.47;7.77;;;11.00;99.90;;;;;;5003691;28;20282;-79
2021/05/08 11:00:58;;;;;;;11.73;8.10;;;11.00;99.90;;;;;;5002774;28;20209;-78
2021/05/08 11:03:26;;;;;;;9.80;7.30;;;11.00;99.90;;;;;;5004125;28;20905;-80
2021/05/08 11:05:54;;;;;;;9.40;7.90;;;10.90;99.90;;;;;;5003465;28;20222;-78
2021/05/08 11:08:48;;;;;;;8.87;7.03;;;10.90;99.90;;;;;;5003539;28;20219;-78
2021/05/08 11:11:17;;;;;;;10.53;7.60;;;10.80;99.90;;;;;;5004736;28;20671;-78
2021/05/08 11:13:57;;;;;;;9.73;7.60;;;10.80;99.90;;;;;;5002310;28;20238;-81
2021/05/08 11:16:24;;;;;;;13.27;8.33;;;10.70;99.90;;;;;;5002607;28;20298;-78
2021/05/08 11:18:52;;;;;;;8.17;7.13;;;10.70;99.90;;;;;;5002249;28;20211;-79
2021/05/08 11:21:45;;;;;;;9.53;8.27;;;10.60;99.90;;;;;;5001093;28;20238;-79
2021/05/08 11:24:12;;;;;;;9.63;6.90;;;10.60;99.90;;;;;;4956432;28;20278;-81
2021/05/08 11:26:43;;;;;;;12.30;8.27;;;10.50;99.90;;;;;;5003118;28;20289;-78
2021/05/08 11:29:15;;;;;;;9.27;7.30;;;10.50;99.90;;;;;;5001634;28;20199;-77
2021/05/08 11:31:45;;;;;;;10.90;7.20;;;10.50;99.90;;;;;;5002212;28;20192;-78
2021/05/08 11:34:13;;;;;;;12.63;7.90;;;10.60;99.90;;;;;;5002004;28;20277;-79
2021/05/08 11:36:48;;;;;;;8.77;6.63;;;10.60;99.90;;;;;;5002171;28;20295;-79
2021/05/08 11:39:16;;;;;;;10.83;7.40;;;10.50;99.90;;;;;;5002030;28;20207;-79
2021/05/08 11:41:43;;;;;;;7.93;6.13;;;10.50;99.90;;;;;;5001455;28;20227;-78
2021/05/08 11:44:19;;;;;;;7.17;6.17;;;10.50;99.90;;;;;;5000849;28;20211;-79
2021/05/08 11:46:52;;;;;;;9.83;6.60;;;10.60;99.90;;;;;;5002251;28;20230;-80
2021/05/08 11:49:24;;;;;;;9.03;6.90;;;10.60;99.90;;;;;;5001480;28;20283;-79
2021/05/08 11:51:50;;;;;;;8.77;6.63;;;10.60;99.90;;;;;;5001922;28;20200;-76
2021/05/08 11:54:17;;;;;;;9.57;7.10;;;10.50;99.90;;;;;;5002135;28;20211;-80
2021/05/08 11:56:43;;;;;;;9.93;6.43;;;10.50;99.90;;;;;;5000853;28;20596;-79
2021/05/08 11:59:10;;;;;;;8.37;6.57;;;10.50;99.90;;;;;;5001681;28;20625;-78
2021/05/08 12:01:36;;;;;;;12.30;7.33;;;10.50;99.90;;;;;;5004632;28;20229;-78
2021/05/08 12:04:05;;;;;;;7.00;6.17;;;10.50;99.90;;;;;;5003809;28;20200;-79
2021/05/08 12:06:32;;;;;;;11.00;6.73;;;10.50;99.90;;;;;;5004860;28;20226;-77
2021/05/08 12:09:08;;;;;;;8.13;6.47;;;10.50;99.90;;;;;;5004402;28;20246;-78
2021/05/08 12:11:34;;;;;;;10.40;6.10;;;10.40;99.90;;;;;;5004588;28;20663;-79
2021/05/08 12:14:12;;;;;;;10.47;6.73;;;10.40;99.90;;;;;;5006109;28;20218;-80
2021/05/08 12:16:39;;;;;;;10.40;6.13;;;10.40;99.90;;;;;;5004958;28;20330;-80
2021/05/08 12:19:06;;;;;;;7.23;5.80;;;10.30;99.90;;;;;;5004914;28;20800;-78
2021/05/08 12:21:33;;;;;;;9.33;5.50;;;10.30;99.90;;;;;;5004979;28;20314;-76
2021/05/08 12:23:59;;;;;;;7.33;5.93;;;10.30;99.90;;;;;;5004781;28;20577;-77
2021/05/08 12:26:25;;;;;;;7.70;5.50;;;10.30;99.90;;;;;;5005185;28;20238;-80
2021/05/08 12:28:56;;;;;;;11.10;6.20;;;10.30;99.90;;;;;;5004623;28;20207;-79
2021/05/08 12:31:29;;;;;;;7.03;6.10;;;10.30;99.90;;;;;;5004654;28;20214;-78
2021/05/08 12:33:57;;;;;;;8.00;6.40;;;10.30;99.90;;;;;;5004533;28;20295;-78
2021/05/08 12:36:25;;;;;;;7.37;5.97;;;10.30;99.90;;;;;;5004549;28;20212;-78
2021/05/08 12:38:53;;;;;;;7.07;6.37;;;10.30;99.90;;;;;;5004045;28;20207;-77
2021/05/08 12:41:31;;;;;;;8.03;6.20;;;10.30;99.90;;;;;;5005185;28;20265;-78
2021/05/08 12:44:08;;;;;;;7.40;6.60;;;10.30;99.90;;;;;;5003605;28;20195;-80